sensor_id;sensor_type;location;lat;lon;timestamp;P1;durP1;ratioP1;P2;durP2;ratioP2
6689;SDS011;3382;51.576;8.076;2023-04-23T00:01:13;16.37;;;14.10;;
6689;SDS011;3382;51.576;8.076;2023-04-23T00:03:41;16.87;;;14.93;;
6689;SDS011;3382;51.576;8.076;2023-04-23T00:06:08;19.67;;;17.33;;
6689;SDS011;3382;51.576;8.076;2023-04-23T00:08:35;27.77;;;21.43;;
6689;SDS011;3382;51.576;8.076;2023-04-23T00:11:05;37.20;;;30.20;;
6689;SDS011;3382;51.576;8.076;2023-04-23T00:13:32;41.17;;;30.97;;
6689;SDS011;3382;51.576;8.076;2023-04-23T00:15:58;42.53;;;32.37;;
6689;SDS011;3382;51.576;8.076;2023-04-23T00:18:24;41.33;;;32.77;;
6689;SDS011;3382;51.576;8.076;2023-04-23T00:20:50;42.97;;;33.20;;
6689;SDS011;3382;51.576;8.076;2023-04-23T00:23:15;42.63;;;33.07;;
6689;SDS011;3382;51.576;8.076;2023-04-23T00:25:41;43.80;;;34.10;;
6689;SDS011;3382;51.576;8.076;2023-04-23T00:28:07;47.33;;;34.27;;
6689;SDS011;3382;51.576;8.076;2023-04-23T00:30:32;43.00;;;32.70;;
6689;SDS011;3382;51.576;8.076;2023-04-23T00:32:58;45.90;;;35.47;;
6689;SDS011;3382;51.576;8.076;2023-04-23T00:35:24;43.17;;;33.53;;
6689;SDS011;3382;51.576;8.076;2023-04-23T00:37:49;43.27;;;33.10;;
6689;SDS011;3382;51.576;8.076;2023-04-23T00:40:15;43.87;;;33.13;;
6689;SDS011;3382;51.576;8.076;2023-04-23T00:42:40;44.47;;;32.30;;
6689;SDS011;3382;51.576;8.076;2023-04-23T00:45:06;45.33;;;32.63;;
6689;SDS011;3382;51.576;8.076;2023-04-23T00:47:33;41.57;;;31.50;;
6689;SDS011;3382;51.576;8.076;2023-04-23T00:49:59;44.07;;;31.80;;
6689;SDS011;3382;51.576;8.076;2023-04-23T00:52:25;43.47;;;31.33;;
6689;SDS011;3382;51.576;8.076;2023-04-23T00:54:53;41.67;;;31.37;;
6689;SDS011;3382;51.576;8.076;2023-04-23T00:57:18;44.13;;;33.63;;
6689;SDS011;3382;51.576;8.076;2023-04-23T00:59:44;47.17;;;32.80;;
6689;SDS011;3382;51.576;8.076;2023-04-23T01:02:11;45.93;;;33.90;;
6689;SDS011;3382;51.576;8.076;2023-04-23T01:04:37;43.33;;;31.70;;
6689;SDS011;3382;51.576;8.076;2023-04-23T01:07:03;45.43;;;32.30;;
6689;SDS011;3382;51.576;8.076;2023-04-23T01:09:29;43.33;;;30.07;;
6689;SDS011;3382;51.576;8.076;2023-04-23T01:11:56;46.63;;;33.30;;
6689;SDS011;3382;51.576;8.076;2023-04-23T01:14:22;43.73;;;32.33;;
6689;SDS011;3382;51.576;8.076;2023-04-23T01:16:48;44.57;;;32.57;;
6689;SDS011;3382;51.576;8.076;2023-04-23T01:19:14;47.90;;;32.83;;
6689;SDS011;3382;51.576;8.076;2023-04-23T01:21:40;46.37;;;33.60;;
6689;SDS011;3382;51.576;8.076;2023-04-23T01:24:06;44.80;;;31.33;;
6689;SDS011;3382;51.576;8.076;2023-04-23T01:26:33;44.77;;;32.63;;
6689;SDS011;3382;51.576;8.076;2023-04-23T01:29:00;43.00;;;31.40;;
6689;SDS011;3382;51.576;8.076;2023-04-23T01:31:26;44.63;;;32.33;;
6689;SDS011;3382;51.576;8.076;2023-04-23T01:33:52;44.73;;;32.63;;
6689;SDS011;3382;51.576;8.076;2023-04-23T01:36:21;44.53;;;32.13;;
6689;SDS011;3382;51.576;8.076;2023-04-23T01:38:47;47.10;;;33.53;;
6689;SDS011;3382;51.576;8.076;2023-04-23T01:41:13;47.10;;;32.70;;
6689;SDS011;3382;51.576;8.076;2023-04-23T01:43:40;44.40;;;31.87;;
6689;SDS011;3382;51.576;8.076;2023-04-23T01:46:07;42.43;;;30.37;;
6689;SDS011;3382;51.576;8.076;2023-04-23T01:48:34;43.73;;;31.83;;
6689;SDS011;3382;51.576;8.076;2023-04-23T01:51:00;43.30;;;33.07;;
6689;SDS011;3382;51.576;8.076;2023-04-23T01:53:26;44.53;;;32.57;;
6689;SDS011;3382;51.576;8.076;2023-04-23T01:55:52;43.13;;;31.97;;
6689;SDS011;3382;51.576;8.076;2023-04-23T01:58:19;47.03;;;33.50;;
6689;SDS011;3382;51.576;8.076;2023-04-23T02:00:45;45.13;;;33.10;;
6689;SDS011;3382;51.576;8.076;2023-04-23T02:03:10;44.80;;;31.07;;
6689;SDS011;3382;51.576;8.076;2023-04-23T02:05:36;45.07;;;32.27;;
6689;SDS011;3382;51.576;8.076;2023-04-23T02:08:05;43.87;;;31.20;;
6689;SDS011;3382;51.576;8.076;2023-04-23T02:10:31;41.73;;;30.40;;
6689;SDS011;3382;51.576;8.076;2023-04-23T02:12:57;43.43;;;30.80;;
6689;SDS011;3382;51.576;8.076;2023-04-23T02:15:23;42.13;;;29.97;;
6689;SDS011;3382;51.576;8.076;2023-04-23T02:17:49;44.67;;;31.40;;
6689;SDS011;3382;51.576;8.076;2023-04-23T02:20:16;42.60;;;30.60;;
6689;SDS011;3382;51.576;8.076;2023-04-23T02:22:43;45.10;;;31.20;;
6689;SDS011;3382;51.576;8.076;2023-04-23T02:25:10;49.07;;;32.07;;
6689;SDS011;3382;51.576;8.076;2023-04-23T02:27:36;46.07;;;32.37;;
6689;SDS011;3382;51.576;8.076;2023-04-23T02:30:02;40.50;;;29.83;;
6689;SDS011;3382;51.576;8.076;2023-04-23T02:32:28;42.53;;;30.30;;
6689;SDS011;3382;51.576;8.076;2023-04-23T02:34:54;46.37;;;31.87;;
6689;SDS011;3382;51.576;8.076;2023-04-23T02:37:20;45.17;;;31.27;;
6689;SDS011;3382;51.576;8.076;2023-04-23T02:39:46;45.03;;;30.97;;
6689;SDS011;3382;51.576;8.076;2023-04-23T02:42:12;43.53;;;31.60;;
6689;SDS011;3382;51.576;8.076;2023-04-23T02:44:37;44.23;;;30.97;;
6689;SDS011;3382;51.576;8.076;2023-04-23T02:47:03;44.53;;;30.33;;
6689;SDS011;3382;51.576;8.076;2023-04-23T02:49:28;43.27;;;30.27;;
6689;SDS011;3382;51.576;8.076;2023-04-23T02:51:54;44.83;;;28.37;;
6689;SDS011;3382;51.576;8.076;2023-04-23T02:54:20;40.07;;;28.80;;
6689;SDS011;3382;51.576;8.076;2023-04-23T02:56:46;42.90;;;29.17;;
6689;SDS011;3382;51.576;8.076;2023-04-23T02:59:11;38.33;;;28.10;;
6689;SDS011;3382;51.576;8.076;2023-04-23T03:01:37;37.17;;;27.33;;
6689;SDS011;3382;51.576;8.076;2023-04-23T03:04:03;38.67;;;27.70;;
6689;SDS011;3382;51.576;8.076;2023-04-23T03:06:28;39.23;;;27.17;;
6689;SDS011;3382;51.576;8.076;2023-04-23T03:08:55;36.57;;;27.27;;
6689;SDS011;3382;51.576;8.076;2023-04-23T03:11:21;39.53;;;28.03;;
6689;SDS011;3382;51.576;8.076;2023-04-23T03:13:47;40.93;;;28.30;;
6689;SDS011;3382;51.576;8.076;2023-04-23T03:16:13;39.00;;;26.90;;
6689;SDS011;3382;51.576;8.076;2023-04-23T03:18:39;37.87;;;26.50;;
6689;SDS011;3382;51.576;8.076;2023-04-23T03:21:05;33.23;;;25.37;;
6689;SDS011;3382;51.576;8.076;2023-04-23T03:23:30;31.47;;;22.43;;
6689;SDS011;3382;51.576;8.076;2023-04-23T03:25:56;29.93;;;22.60;;
6689;SDS011;3382;51.576;8.076;2023-04-23T03:28:21;27.10;;;20.87;;
6689;SDS011;3382;51.576;8.076;2023-04-23T03:30:47;30.47;;;22.37;;
6689;SDS011;3382;51.576;8.076;2023-04-23T03:33:13;30.47;;;20.53;;
6689;SDS011;3382;51.576;8.076;2023-04-23T03:35:39;29.13;;;21.77;;
6689;SDS011;3382;51.576;8.076;2023-04-23T03:38:04;28.80;;;21.87;;
6689;SDS011;3382;51.576;8.076;2023-04-23T03:40:30;28.03;;;20.77;;
6689;SDS011;3382;51.576;8.076;2023-04-23T03:42:56;27.33;;;20.93;;
6689;SDS011;3382;51.576;8.076;2023-04-23T03:45:22;30.63;;;21.87;;
6689;SDS011;3382;51.576;8.076;2023-04-23T03:47:47;29.57;;;21.43;;
6689;SDS011;3382;51.576;8.076;2023-04-23T03:50:13;28.07;;;21.30;;
6689;SDS011;3382;51.576;8.076;2023-04-23T03:52:39;29.33;;;22.20;;
6689;SDS011;3382;51.576;8.076;2023-04-23T03:55:05;26.87;;;21.20;;
6689;SDS011;3382;51.576;8.076;2023-04-23T03:57:31;31.17;;;21.83;;
6689;SDS011;3382;51.576;8.076;2023-04-23T03:59:57;27.80;;;21.47;;
6689;SDS011;3382;51.576;8.076;2023-04-23T04:02:23;27.30;;;21.20;;
6689;SDS011;3382;51.576;8.076;2023-04-23T04:04:48;26.70;;;20.70;;
6689;SDS011;3382;51.576;8.076;2023-04-23T04:07:15;24.87;;;20.17;;
6689;SDS011;3382;51.576;8.076;2023-04-23T04:09:41;26.50;;;20.67;;
6689;SDS011;3382;51.576;8.076;2023-04-23T04:12:07;26.67;;;20.87;;
6689;SDS011;3382;51.576;8.076;2023-04-23T04:14:32;29.43;;;20.77;;
6689;SDS011;3382;51.576;8.076;2023-04-23T04:16:58;26.57;;;20.43;;
6689;SDS011;3382;51.576;8.076;2023-04-23T04:19:24;28.00;;;20.87;;
6689;SDS011;3382;51.576;8.076;2023-04-23T04:21:49;26.53;;;20.33;;
6689;SDS011;3382;51.576;8.076;2023-04-23T04:24:15;30.97;;;21.87;;
6689;SDS011;3382;51.576;8.076;2023-04-23T04:26:42;28.73;;;21.57;;
6689;SDS011;3382;51.576;8.076;2023-04-23T04:29:09;26.60;;;20.70;;
6689;SDS011;3382;51.576;8.076;2023-04-23T04:31:35;26.90;;;20.67;;
6689;SDS011;3382;51.576;8.076;2023-04-23T04:34:01;28.23;;;20.80;;
6689;SDS011;3382;51.576;8.076;2023-04-23T04:36:27;26.67;;;21.30;;
6689;SDS011;3382;51.576;8.076;2023-04-23T04:38:53;26.67;;;20.87;;
6689;SDS011;3382;51.576;8.076;2023-04-23T04:41:20;25.17;;;19.20;;
6689;SDS011;3382;51.576;8.076;2023-04-23T04:43:46;24.90;;;19.87;;
6689;SDS011;3382;51.576;8.076;2023-04-23T04:46:12;24.57;;;18.57;;
6689;SDS011;3382;51.576;8.076;2023-04-23T04:48:39;23.13;;;18.87;;
6689;SDS011;3382;51.576;8.076;2023-04-23T04:51:05;23.87;;;19.17;;
6689;SDS011;3382;51.576;8.076;2023-04-23T04:53:31;24.20;;;19.43;;
6689;SDS011;3382;51.576;8.076;2023-04-23T04:55:57;23.03;;;18.43;;
6689;SDS011;3382;51.576;8.076;2023-04-23T04:58:22;23.37;;;18.67;;
6689;SDS011;3382;51.576;8.076;2023-04-23T05:00:48;21.37;;;16.63;;
6689;SDS011;3382;51.576;8.076;2023-04-23T05:03:16;21.03;;;16.90;;
6689;SDS011;3382;51.576;8.076;2023-04-23T05:05:43;21.07;;;17.27;;
6689;SDS011;3382;51.576;8.076;2023-04-23T05:08:09;21.07;;;17.43;;
6689;SDS011;3382;51.576;8.076;2023-04-23T05:10:37;19.03;;;16.73;;
6689;SDS011;3382;51.576;8.076;2023-04-23T05:13:03;21.77;;;16.97;;
6689;SDS011;3382;51.576;8.076;2023-04-23T05:15:28;20.03;;;16.87;;
6689;SDS011;3382;51.576;8.076;2023-04-23T05:17:54;19.90;;;16.43;;
6689;SDS011;3382;51.576;8.076;2023-04-23T05:20:20;23.57;;;17.47;;
6689;SDS011;3382;51.576;8.076;2023-04-23T05:22:46;18.97;;;15.67;;
6689;SDS011;3382;51.576;8.076;2023-04-23T05:25:12;20.50;;;16.30;;
6689;SDS011;3382;51.576;8.076;2023-04-23T05:27:38;19.67;;;16.30;;
6689;SDS011;3382;51.576;8.076;2023-04-23T05:30:04;17.77;;;15.50;;
6689;SDS011;3382;51.576;8.076;2023-04-23T05:32:32;19.13;;;14.93;;
6689;SDS011;3382;51.576;8.076;2023-04-23T05:34:58;17.23;;;15.03;;
6689;SDS011;3382;51.576;8.076;2023-04-23T05:37:24;4.70;;;3.73;;
6689;SDS011;3382;51.576;8.076;2023-04-23T05:39:50;8.47;;;6.27;;
6689;SDS011;3382;51.576;8.076;2023-04-23T05:42:16;9.83;;;8.83;;
6689;SDS011;3382;51.576;8.076;2023-04-23T05:44:41;12.07;;;9.33;;
6689;SDS011;3382;51.576;8.076;2023-04-23T05:47:09;13.20;;;11.33;;
6689;SDS011;3382;51.576;8.076;2023-04-23T05:49:35;8.70;;;7.80;;
6689;SDS011;3382;51.576;8.076;2023-04-23T05:52:01;12.17;;;10.53;;
6689;SDS011;3382;51.576;8.076;2023-04-23T05:54:27;9.87;;;8.80;;
6689;SDS011;3382;51.576;8.076;2023-04-23T05:56:53;9.43;;;7.93;;
6689;SDS011;3382;51.576;8.076;2023-04-23T05:59:19;7.77;;;6.97;;
6689;SDS011;3382;51.576;8.076;2023-04-23T06:01:45;14.30;;;9.37;;
6689;SDS011;3382;51.576;8.076;2023-04-23T06:04:11;9.80;;;8.27;;
6689;SDS011;3382;51.576;8.076;2023-04-23T06:06:37;10.33;;;8.50;;
6689;SDS011;3382;51.576;8.076;2023-04-23T06:09:03;13.17;;;8.13;;
6689;SDS011;3382;51.576;8.076;2023-04-23T06:11:29;8.83;;;7.87;;
6689;SDS011;3382;51.576;8.076;2023-04-23T06:13:56;8.33;;;7.50;;
6689;SDS011;3382;51.576;8.076;2023-04-23T06:16:22;10.07;;;8.07;;
6689;SDS011;3382;51.576;8.076;2023-04-23T06:18:48;9.17;;;8.03;;
6689;SDS011;3382;51.576;8.076;2023-04-23T06:21:14;8.67;;;7.77;;
6689;SDS011;3382;51.576;8.076;2023-04-23T06:23:40;6.53;;;5.87;;
6689;SDS011;3382;51.576;8.076;2023-04-23T06:26:05;9.10;;;6.87;;
6689;SDS011;3382;51.576;8.076;2023-04-23T06:28:31;5.20;;;3.83;;
6689;SDS011;3382;51.576;8.076;2023-04-23T06:30:56;6.63;;;5.97;;
6689;SDS011;3382;51.576;8.076;2023-04-23T06:33:22;7.27;;;5.87;;
6689;SDS011;3382;51.576;8.076;2023-04-23T06:35:48;6.93;;;6.27;;
6689;SDS011;3382;51.576;8.076;2023-04-23T06:38:13;8.17;;;7.33;;
6689;SDS011;3382;51.576;8.076;2023-04-23T06:40:40;4.77;;;4.00;;
6689;SDS011;3382;51.576;8.076;2023-04-23T06:43:06;7.37;;;6.63;;
6689;SDS011;3382;51.576;8.076;2023-04-23T06:45:32;7.83;;;5.80;;
6689;SDS011;3382;51.576;8.076;2023-04-23T06:47:59;7.83;;;7.03;;
6689;SDS011;3382;51.576;8.076;2023-04-23T06:50:25;8.20;;;7.40;;
6689;SDS011;3382;51.576;8.076;2023-04-23T06:52:51;5.23;;;2.90;;
6689;SDS011;3382;51.576;8.076;2023-04-23T06:55:17;9.97;;;4.73;;
6689;SDS011;3382;51.576;8.076;2023-04-23T06:57:42;6.27;;;4.90;;
6689;SDS011;3382;51.576;8.076;2023-04-23T07:00:08;8.13;;;4.77;;
6689;SDS011;3382;51.576;8.076;2023-04-23T07:02:35;8.13;;;6.10;;
6689;SDS011;3382;51.576;8.076;2023-04-23T07:05:01;12.63;;;3.20;;
6689;SDS011;3382;51.576;8.076;2023-04-23T07:07:27;6.47;;;3.37;;
6689;SDS011;3382;51.576;8.076;2023-04-23T07:09:52;6.67;;;3.77;;
6689;SDS011;3382;51.576;8.076;2023-04-23T07:12:18;5.67;;;5.17;;
6689;SDS011;3382;51.576;8.076;2023-04-23T07:14:43;10.33;;;3.77;;
6689;SDS011;3382;51.576;8.076;2023-04-23T07:17:09;7.77;;;5.83;;
6689;SDS011;3382;51.576;8.076;2023-04-23T07:19:35;7.50;;;6.73;;
6689;SDS011;3382;51.576;8.076;2023-04-23T07:22:01;5.23;;;4.13;;
6689;SDS011;3382;51.576;8.076;2023-04-23T07:24:27;7.63;;;6.73;;
6689;SDS011;3382;51.576;8.076;2023-04-23T07:26:53;7.93;;;7.13;;
6689;SDS011;3382;51.576;8.076;2023-04-23T07:29:19;6.87;;;5.83;;
6689;SDS011;3382;51.576;8.076;2023-04-23T07:31:45;7.90;;;5.93;;
6689;SDS011;3382;51.576;8.076;2023-04-23T07:34:11;8.27;;;6.23;;
6689;SDS011;3382;51.576;8.076;2023-04-23T07:36:36;5.93;;;3.03;;
6689;SDS011;3382;51.576;8.076;2023-04-23T07:39:02;6.30;;;2.90;;
6689;SDS011;3382;51.576;8.076;2023-04-23T07:41:29;8.97;;;2.97;;
6689;SDS011;3382;51.576;8.076;2023-04-23T07:43:55;9.97;;;5.30;;
6689;SDS011;3382;51.576;8.076;2023-04-23T07:46:21;7.53;;;5.90;;
6689;SDS011;3382;51.576;8.076;2023-04-23T07:48:46;8.50;;;6.30;;
6689;SDS011;3382;51.576;8.076;2023-04-23T07:51:12;5.63;;;5.10;;
6689;SDS011;3382;51.576;8.076;2023-04-23T07:53:38;6.00;;;5.07;;
6689;SDS011;3382;51.576;8.076;2023-04-23T07:56:03;5.17;;;4.53;;
6689;SDS011;3382;51.576;8.076;2023-04-23T07:58:29;13.57;;;3.87;;
6689;SDS011;3382;51.576;8.076;2023-04-23T08:00:57;9.13;;;4.43;;
6689;SDS011;3382;51.576;8.076;2023-04-23T08:03:22;6.27;;;2.87;;
6689;SDS011;3382;51.576;8.076;2023-04-23T08:05:48;6.17;;;3.87;;
6689;SDS011;3382;51.576;8.076;2023-04-23T08:08:14;9.50;;;5.03;;
6689;SDS011;3382;51.576;8.076;2023-04-23T08:10:39;4.53;;;3.63;;
6689;SDS011;3382;51.576;8.076;2023-04-23T08:13:05;4.93;;;4.33;;
6689;SDS011;3382;51.576;8.076;2023-04-23T08:15:31;4.57;;;3.77;;
6689;SDS011;3382;51.576;8.076;2023-04-23T08:17:57;5.40;;;4.50;;
6689;SDS011;3382;51.576;8.076;2023-04-23T08:20:22;4.43;;;4.03;;
6689;SDS011;3382;51.576;8.076;2023-04-23T08:22:49;6.30;;;4.37;;
6689;SDS011;3382;51.576;8.076;2023-04-23T08:25:17;5.73;;;4.17;;
6689;SDS011;3382;51.576;8.076;2023-04-23T08:27:44;4.70;;;3.67;;
6689;SDS011;3382;51.576;8.076;2023-04-23T08:30:10;3.43;;;3.13;;
6689;SDS011;3382;51.576;8.076;2023-04-23T08:32:37;4.30;;;3.60;;
6689;SDS011;3382;51.576;8.076;2023-04-23T08:35:03;4.90;;;3.43;;
6689;SDS011;3382;51.576;8.076;2023-04-23T08:37:29;3.27;;;2.97;;
6689;SDS011;3382;51.576;8.076;2023-04-23T08:39:54;3.37;;;3.07;;
6689;SDS011;3382;51.576;8.076;2023-04-23T08:42:26;3.67;;;3.37;;
6689;SDS011;3382;51.576;8.076;2023-04-23T08:45:01;3.83;;;3.50;;
6689;SDS011;3382;51.576;8.076;2023-04-23T08:47:28;2.87;;;2.63;;
6689;SDS011;3382;51.576;8.076;2023-04-23T08:49:56;4.23;;;2.90;;
6689;SDS011;3382;51.576;8.076;2023-04-23T08:52:24;56.20;;;37.57;;
6689;SDS011;3382;51.576;8.076;2023-04-23T08:54:55;112.67;;;47.37;;
6689;SDS011;3382;51.576;8.076;2023-04-23T08:57:28;55.37;;;24.20;;
6689;SDS011;3382;51.576;8.076;2023-04-23T08:59:55;79.73;;;34.30;;
6689;SDS011;3382;51.576;8.076;2023-04-23T09:02:21;34.33;;;16.90;;
6689;SDS011;3382;51.576;8.076;2023-04-23T09:04:47;42.37;;;17.87;;
6689;SDS011;3382;51.576;8.076;2023-04-23T09:07:13;12.90;;;7.27;;
6689;SDS011;3382;51.576;8.076;2023-04-23T09:09:40;4.60;;;3.47;;
6689;SDS011;3382;51.576;8.076;2023-04-23T09:12:06;19.00;;;9.80;;
6689;SDS011;3382;51.576;8.076;2023-04-23T09:14:32;16.10;;;8.13;;
6689;SDS011;3382;51.576;8.076;2023-04-23T09:16:58;4.73;;;2.77;;
6689;SDS011;3382;51.576;8.076;2023-04-23T09:19:25;5.30;;;2.67;;
6689;SDS011;3382;51.576;8.076;2023-04-23T09:21:52;9.80;;;5.73;;
6689;SDS011;3382;51.576;8.076;2023-04-23T09:24:20;3.10;;;2.80;;
6689;SDS011;3382;51.576;8.076;2023-04-23T09:26:47;7.10;;;4.20;;
6689;SDS011;3382;51.576;8.076;2023-04-23T09:29:23;12.57;;;5.97;;
6689;SDS011;3382;51.576;8.076;2023-04-23T09:31:50;9.97;;;4.00;;
6689;SDS011;3382;51.576;8.076;2023-04-23T09:34:18;5.70;;;2.87;;
6689;SDS011;3382;51.576;8.076;2023-04-23T09:36:46;8.50;;;3.93;;
6689;SDS011;3382;51.576;8.076;2023-04-23T09:39:17;12.37;;;5.73;;
6689;SDS011;3382;51.576;8.076;2023-04-23T09:41:45;26.03;;;6.57;;
6689;SDS011;3382;51.576;8.076;2023-04-23T09:44:11;10.33;;;4.83;;
6689;SDS011;3382;51.576;8.076;2023-04-23T09:46:41;22.60;;;6.17;;
6689;SDS011;3382;51.576;8.076;2023-04-23T09:49:08;4.17;;;2.73;;
6689;SDS011;3382;51.576;8.076;2023-04-23T09:51:45;3.37;;;2.30;;
6689;SDS011;3382;51.576;8.076;2023-04-23T09:56:41;5.60;;;2.30;;
6689;SDS011;3382;51.576;8.076;2023-04-23T09:59:21;3.90;;;2.30;;
6689;SDS011;3382;51.576;8.076;2023-04-23T10:01:47;3.83;;;2.17;;
6689;SDS011;3382;51.576;8.076;2023-04-23T10:04:17;3.27;;;2.03;;
6689;SDS011;3382;51.576;8.076;2023-04-23T10:06:44;5.27;;;3.50;;
6689;SDS011;3382;51.576;8.076;2023-04-23T10:09:10;4.40;;;2.17;;
6689;SDS011;3382;51.576;8.076;2023-04-23T10:11:36;3.23;;;2.07;;
6689;SDS011;3382;51.576;8.076;2023-04-23T10:14:02;5.10;;;2.43;;
6689;SDS011;3382;51.576;8.076;2023-04-23T10:16:28;12.03;;;3.20;;
6689;SDS011;3382;51.576;8.076;2023-04-23T10:18:54;10.90;;;4.67;;
6689;SDS011;3382;51.576;8.076;2023-04-23T10:21:24;13.17;;;6.67;;
6689;SDS011;3382;51.576;8.076;2023-04-23T10:23:52;6.03;;;2.77;;
6689;SDS011;3382;51.576;8.076;2023-04-23T10:26:21;8.43;;;2.67;;
6689;SDS011;3382;51.576;8.076;2023-04-23T10:28:48;8.50;;;2.90;;
6689;SDS011;3382;51.576;8.076;2023-04-23T10:31:18;12.97;;;5.37;;
6689;SDS011;3382;51.576;8.076;2023-04-23T10:33:45;3.83;;;1.70;;
6689;SDS011;3382;51.576;8.076;2023-04-23T10:36:12;16.83;;;5.80;;
6689;SDS011;3382;51.576;8.076;2023-04-23T10:38:39;12.27;;;4.30;;
6689;SDS011;3382;51.576;8.076;2023-04-23T10:41:06;13.17;;;5.57;;
6689;SDS011;3382;51.576;8.076;2023-04-23T10:43:33;16.97;;;5.10;;
6689;SDS011;3382;51.576;8.076;2023-04-23T10:45:59;9.43;;;3.93;;
6689;SDS011;3382;51.576;8.076;2023-04-23T10:48:28;11.20;;;4.30;;
6689;SDS011;3382;51.576;8.076;2023-04-23T10:50:57;3.10;;;1.80;;
6689;SDS011;3382;51.576;8.076;2023-04-23T10:53:26;4.27;;;1.80;;
6689;SDS011;3382;51.576;8.076;2023-04-23T10:56:03;5.07;;;2.43;;
6689;SDS011;3382;51.576;8.076;2023-04-23T10:58:49;2.00;;;1.40;;
6689;SDS011;3382;51.576;8.076;2023-04-23T11:01:16;5.87;;;2.33;;
6689;SDS011;3382;51.576;8.076;2023-04-23T11:03:42;6.80;;;2.70;;
6689;SDS011;3382;51.576;8.076;2023-04-23T11:06:11;2.57;;;1.90;;
6689;SDS011;3382;51.576;8.076;2023-04-23T11:08:57;1.70;;;1.53;;
6689;SDS011;3382;51.576;8.076;2023-04-23T11:11:23;6.37;;;3.13;;
6689;SDS011;3382;51.576;8.076;2023-04-23T11:14:10;21.37;;;5.83;;
6689;SDS011;3382;51.576;8.076;2023-04-23T11:16:39;4.37;;;1.67;;
6689;SDS011;3382;51.576;8.076;2023-04-23T11:19:08;2.30;;;1.63;;
6689;SDS011;3382;51.576;8.076;2023-04-23T11:24:22;4.43;;;1.73;;
6689;SDS011;3382;51.576;8.076;2023-04-23T11:26:52;7.70;;;3.47;;
6689;SDS011;3382;51.576;8.076;2023-04-23T11:29:19;3.93;;;1.53;;
6689;SDS011;3382;51.576;8.076;2023-04-23T11:31:49;9.00;;;4.77;;
6689;SDS011;3382;51.576;8.076;2023-04-23T11:34:16;4.77;;;1.73;;
6689;SDS011;3382;51.576;8.076;2023-04-23T11:36:42;6.07;;;2.43;;
6689;SDS011;3382;51.576;8.076;2023-04-23T11:39:08;8.13;;;4.23;;
6689;SDS011;3382;51.576;8.076;2023-04-23T11:41:34;3.87;;;2.17;;
6689;SDS011;3382;51.576;8.076;2023-04-23T11:44:00;4.33;;;2.40;;
6689;SDS011;3382;51.576;8.076;2023-04-23T11:46:26;2.80;;;1.70;;
6689;SDS011;3382;51.576;8.076;2023-04-23T11:48:51;2.87;;;1.80;;
6689;SDS011;3382;51.576;8.076;2023-04-23T11:51:18;1.63;;;1.43;;
6689;SDS011;3382;51.576;8.076;2023-04-23T11:53:49;3.60;;;1.53;;
6689;SDS011;3382;51.576;8.076;2023-04-23T11:56:15;3.13;;;1.50;;
6689;SDS011;3382;51.576;8.076;2023-04-23T11:58:41;3.17;;;1.47;;
6689;SDS011;3382;51.576;8.076;2023-04-23T12:01:07;2.97;;;1.63;;
6689;SDS011;3382;51.576;8.076;2023-04-23T12:03:36;5.63;;;1.77;;
6689;SDS011;3382;51.576;8.076;2023-04-23T12:06:02;4.57;;;1.33;;
6689;SDS011;3382;51.576;8.076;2023-04-23T12:08:30;1.63;;;1.43;;
6689;SDS011;3382;51.576;8.076;2023-04-23T12:11:02;7.57;;;2.53;;
6689;SDS011;3382;51.576;8.076;2023-04-23T12:13:30;1.57;;;1.40;;
6689;SDS011;3382;51.576;8.076;2023-04-23T12:15:58;5.67;;;2.23;;
6689;SDS011;3382;51.576;8.076;2023-04-23T12:21:06;2.57;;;1.60;;
6689;SDS011;3382;51.576;8.076;2023-04-23T12:23:31;1.77;;;1.30;;
6689;SDS011;3382;51.576;8.076;2023-04-23T12:25:59;2.03;;;1.50;;
6689;SDS011;3382;51.576;8.076;2023-04-23T12:28:27;2.50;;;1.50;;
6689;SDS011;3382;51.576;8.076;2023-04-23T12:30:53;1.90;;;1.40;;
6689;SDS011;3382;51.576;8.076;2023-04-23T12:33:24;5.07;;;1.70;;
6689;SDS011;3382;51.576;8.076;2023-04-23T12:35:53;2.67;;;1.50;;
6689;SDS011;3382;51.576;8.076;2023-04-23T12:38:20;1.70;;;1.30;;
6689;SDS011;3382;51.576;8.076;2023-04-23T12:40:53;2.03;;;1.60;;
6689;SDS011;3382;51.576;8.076;2023-04-23T12:43:20;2.30;;;1.60;;
6689;SDS011;3382;51.576;8.076;2023-04-23T12:45:46;2.37;;;1.70;;
6689;SDS011;3382;51.576;8.076;2023-04-23T12:48:12;2.03;;;1.50;;
6689;SDS011;3382;51.576;8.076;2023-04-23T12:50:38;2.53;;;1.50;;
6689;SDS011;3382;51.576;8.076;2023-04-23T12:53:04;3.20;;;1.27;;
6689;SDS011;3382;51.576;8.076;2023-04-23T12:55:30;3.90;;;2.00;;
6689;SDS011;3382;51.576;8.076;2023-04-23T12:57:55;17.83;;;4.80;;
6689;SDS011;3382;51.576;8.076;2023-04-23T13:00:21;7.83;;;3.47;;
6689;SDS011;3382;51.576;8.076;2023-04-23T13:02:47;9.60;;;3.87;;
6689;SDS011;3382;51.576;8.076;2023-04-23T13:05:13;10.13;;;3.50;;
6689;SDS011;3382;51.576;8.076;2023-04-23T13:07:38;8.90;;;3.97;;
6689;SDS011;3382;51.576;8.076;2023-04-23T13:10:04;6.00;;;2.50;;
6689;SDS011;3382;51.576;8.076;2023-04-23T13:12:30;8.63;;;3.10;;
6689;SDS011;3382;51.576;8.076;2023-04-23T13:14:56;5.23;;;1.93;;
6689;SDS011;3382;51.576;8.076;2023-04-23T13:17:22;7.40;;;3.00;;
6689;SDS011;3382;51.576;8.076;2023-04-23T13:19:50;2.50;;;1.40;;
6689;SDS011;3382;51.576;8.076;2023-04-23T13:22:16;1.30;;;1.00;;
6689;SDS011;3382;51.576;8.076;2023-04-23T13:24:41;1.90;;;1.23;;
6689;SDS011;3382;51.576;8.076;2023-04-23T13:27:07;4.93;;;2.67;;
6689;SDS011;3382;51.576;8.076;2023-04-23T13:29:33;2.53;;;1.40;;
6689;SDS011;3382;51.576;8.076;2023-04-23T13:31:58;2.27;;;1.33;;
6689;SDS011;3382;51.576;8.076;2023-04-23T13:34:24;6.00;;;2.67;;
6689;SDS011;3382;51.576;8.076;2023-04-23T13:36:50;6.20;;;2.87;;
6689;SDS011;3382;51.576;8.076;2023-04-23T13:39:16;1.67;;;1.23;;
6689;SDS011;3382;51.576;8.076;2023-04-23T13:41:42;5.50;;;1.80;;
6689;SDS011;3382;51.576;8.076;2023-04-23T13:44:08;2.00;;;1.60;;
6689;SDS011;3382;51.576;8.076;2023-04-23T13:46:34;1.47;;;1.13;;
6689;SDS011;3382;51.576;8.076;2023-04-23T13:48:59;7.57;;;2.70;;
6689;SDS011;3382;51.576;8.076;2023-04-23T13:51:25;4.60;;;2.20;;
6689;SDS011;3382;51.576;8.076;2023-04-23T13:53:51;4.13;;;1.27;;
6689;SDS011;3382;51.576;8.076;2023-04-23T13:56:16;7.60;;;3.00;;
6689;SDS011;3382;51.576;8.076;2023-04-23T13:58:42;3.00;;;2.10;;
6689;SDS011;3382;51.576;8.076;2023-04-23T14:01:10;2.10;;;1.50;;
6689;SDS011;3382;51.576;8.076;2023-04-23T14:03:38;6.37;;;3.10;;
6689;SDS011;3382;51.576;8.076;2023-04-23T14:06:04;6.67;;;2.87;;
6689;SDS011;3382;51.576;8.076;2023-04-23T14:08:29;5.53;;;2.97;;
6689;SDS011;3382;51.576;8.076;2023-04-23T14:10:55;6.07;;;2.80;;
6689;SDS011;3382;51.576;8.076;2023-04-23T14:13:21;5.17;;;2.40;;
6689;SDS011;3382;51.576;8.076;2023-04-23T14:15:46;8.13;;;5.63;;
6689;SDS011;3382;51.576;8.076;2023-04-23T14:18:12;2.07;;;1.70;;
6689;SDS011;3382;51.576;8.076;2023-04-23T14:20:38;2.63;;;1.17;;
6689;SDS011;3382;51.576;8.076;2023-04-23T14:23:41;4.53;;;1.40;;
6689;SDS011;3382;51.576;8.076;2023-04-23T14:26:03;3.63;;;1.70;;
6689;SDS011;3382;51.576;8.076;2023-04-23T14:28:33;4.87;;;1.47;;
6689;SDS011;3382;51.576;8.076;2023-04-23T14:31:03;3.67;;;1.40;;
6689;SDS011;3382;51.576;8.076;2023-04-23T14:33:28;3.37;;;2.00;;
6689;SDS011;3382;51.576;8.076;2023-04-23T14:35:54;3.87;;;1.33;;
6689;SDS011;3382;51.576;8.076;2023-04-23T14:38:20;2.33;;;1.40;;
6689;SDS011;3382;51.576;8.076;2023-04-23T14:40:46;2.57;;;1.23;;
6689;SDS011;3382;51.576;8.076;2023-04-23T14:43:11;2.37;;;1.20;;
6689;SDS011;3382;51.576;8.076;2023-04-23T14:45:37;1.87;;;1.37;;
6689;SDS011;3382;51.576;8.076;2023-04-23T14:48:02;1.27;;;1.13;;
6689;SDS011;3382;51.576;8.076;2023-04-23T14:50:28;3.47;;;1.37;;
6689;SDS011;3382;51.576;8.076;2023-04-23T14:52:54;4.03;;;1.60;;
6689;SDS011;3382;51.576;8.076;2023-04-23T14:55:20;2.50;;;1.40;;
6689;SDS011;3382;51.576;8.076;2023-04-23T14:57:46;3.93;;;1.60;;
6689;SDS011;3382;51.576;8.076;2023-04-23T15:00:15;5.87;;;1.63;;
6689;SDS011;3382;51.576;8.076;2023-04-23T15:02:42;1.40;;;1.30;;
6689;SDS011;3382;51.576;8.076;2023-04-23T15:05:10;2.40;;;1.20;;
6689;SDS011;3382;51.576;8.076;2023-04-23T15:07:37;1.83;;;1.30;;